Time;durP1;ratioP1;P1;durP2;ratioP2;P2;SDS_P1;SDS_P2;PMS_P1;PMS_P2;Temp;Humidity;BMP_temperature;BMP_pressure;BME280_temperature;BME280_humidity;BME280_pressure;Samples;Min_cycle;Max_cycle;Signal;HPM_P1;HPM_P2
2023/03/07 00:00:33;;;;;;;4.77;3.77;;;6.50;99.90;;;;;;5053025;28;20285;-61
2023/03/07 00:02:58;;;;;;;4.50;3.40;;;6.40;99.90;;;;;;5054231;28;20624;-61
2023/03/07 00:05:24;;;;;;;8.20;4.00;;;6.40;99.90;;;;;;5067390;28;20242;-61
2023/03/07 00:07:50;;;;;;;9.17;5.10;;;6.40;99.90;;;;;;5050969;28;20212;-61
2023/03/07 00:10:16;;;;;;;7.33;4.03;;;6.50;99.90;;;;;;5038400;28;20203;-61
2023/03/07 00:12:42;;;;;;;5.60;3.17;;;6.40;99.90;;;;;;5072184;28;20197;-61
2023/03/07 00:15:09;;;;;;;3.70;3.07;;;6.30;99.90;;;;;;5037531;28;20182;-61
2023/03/07 00:17:38;;;;;;;7.93;3.77;;;6.30;99.90;;;;;;5042678;28;20193;-61
2023/03/07 00:20:06;;;;;;;4.53;3.90;;;6.30;99.90;;;;;;5060090;28;20203;-61
2023/03/07 00:22:35;;;;;;;8.93;3.37;;;6.30;99.90;;;;;;5057610;28;20722;-62
2023/03/07 00:25:02;;;;;;;4.23;3.03;;;6.40;99.90;;;;;;5054494;28;20255;-61
2023/03/07 00:27:30;;;;;;;4.83;4.03;;;6.40;99.90;;;;;;5071160;28;20213;-65
2023/03/07 00:29:56;;;;;;;7.43;3.73;;;6.30;99.90;;;;;;5055516;28;20543;-61
2023/03/07 00:32:22;;;;;;;7.40;3.43;;;6.30;99.90;;;;;;5055830;28;20198;-61
2023/03/07 00:34:48;;;;;;;4.80;3.33;;;6.40;99.90;;;;;;5037032;28;20244;-61
2023/03/07 00:37:14;;;;;;;5.43;4.30;;;6.50;99.90;;;;;;5048194;28;20181;-61
2023/03/07 00:39:40;;;;;;;4.23;3.30;;;6.60;99.90;;;;;;5067767;28;20206;-61
2023/03/07 00:42:06;;;;;;;8.47;4.07;;;6.60;99.90;;;;;;5058739;28;20223;-61
2023/03/07 00:44:32;;;;;;;5.63;3.63;;;6.50;99.90;;;;;;5088336;28;20177;-61
2023/03/07 00:46:58;;;;;;;5.83;4.03;;;6.50;99.90;;;;;;5066344;28;20619;-61
2023/03/07 00:49:24;;;;;;;5.47;3.77;;;6.60;99.90;;;;;;5054871;28;20185;-61
2023/03/07 00:51:50;;;;;;;7.17;4.27;;;6.60;99.90;;;;;;5059549;28;20232;-61
2023/03/07 00:54:15;;;;;;;7.53;4.70;;;6.60;99.90;;;;;;5037930;28;20191;-61
2023/03/07 00:56:41;;;;;;;8.43;5.63;;;6.60;99.90;;;;;;5046542;28;20274;-62
2023/03/07 00:59:07;;;;;;;7.43;5.87;;;6.60;99.90;;;;;;5072545;28;20209;-61
2023/03/07 01:01:33;;;;;;;12.93;7.07;;;6.50;99.90;;;;;;5052442;28;20201;-61
2023/03/07 01:03:59;;;;;;;11.17;7.37;;;6.70;99.90;;;;;;5041772;28;20190;-61
2023/03/07 01:06:28;;;;;;;15.63;8.17;;;6.60;99.90;;;;;;5039147;28;20535;-61
2023/03/07 01:08:56;;;;;;;9.93;7.60;;;6.50;99.90;;;;;;5038308;28;20186;-61
2023/03/07 01:11:22;;;;;;;11.03;7.67;;;6.30;99.90;;;;;;5034539;28;20182;-61
2023/03/07 01:13:48;;;;;;;13.63;8.90;;;6.30;99.90;;;;;;5034068;28;20186;-61
2023/03/07 01:16:20;;;;;;;19.40;9.13;;;6.30;99.90;;;;;;5049254;28;20192;-61
2023/03/07 01:18:49;;;;;;;10.77;7.67;;;6.40;99.90;;;;;;5034317;28;20210;-61
2023/03/07 01:21:23;;;;;;;16.07;8.63;;;6.40;99.90;;;;;;5032827;28;20898;-61
2023/03/07 01:23:48;;;;;;;13.60;6.70;;;6.50;99.90;;;;;;5034592;28;20178;-63
2023/03/07 01:26:19;;;;;;;13.87;8.20;;;6.40;99.90;;;;;;5076648;28;20186;-61
2023/03/07 01:28:45;;;;;;;17.27;8.47;;;6.30;99.90;;;;;;5056411;28;20210;-61
2023/03/07 01:31:11;;;;;;;14.73;8.40;;;6.30;99.90;;;;;;5051349;28;20584;-61
2023/03/07 01:33:37;;;;;;;12.77;7.80;;;6.40;99.90;;;;;;5041800;28;20214;-61
2023/03/07 01:36:03;;;;;;;11.07;7.60;;;6.30;99.90;;;;;;5044323;28;20257;-61
2023/03/07 01:38:32;;;;;;;17.17;7.93;;;6.30;99.90;;;;;;5041747;28;20182;-64
2023/03/07 01:41:01;;;;;;;12.40;7.10;;;6.30;99.90;;;;;;5040854;28;20543;-61
2023/03/07 01:43:30;;;;;;;11.83;6.20;;;6.20;99.90;;;;;;5053880;28;20184;-61
2023/03/07 01:46:18;;;;;;;15.00;7.63;;;6.10;99.90;;;;;;5041077;28;20232;-61
2023/03/07 01:48:59;;;;;;;12.77;6.90;;;6.10;99.90;;;;;;5043748;28;20201;-61
2023/03/07 01:51:27;;;;;;;12.43;7.47;;;6.10;99.90;;;;;;5076737;28;20182;-61
2023/03/07 01:53:54;;;;;;;17.70;8.90;;;6.10;99.90;;;;;;5046372;28;20640;-63
2023/03/07 01:56:21;;;;;;;15.57;7.33;;;6.10;99.90;;;;;;5083908;28;20341;-61
2023/03/07 01:58:47;;;;;;;11.40;7.23;;;6.20;99.90;;;;;;5062806;28;20228;-61
2023/03/07 02:01:14;;;;;;;17.17;7.37;;;6.20;99.90;;;;;;5056520;28;20186;-61
2023/03/07 02:03:51;;;;;;;13.93;7.60;;;6.20;99.90;;;;;;5049272;28;20183;-61
2023/03/07 02:06:17;;;;;;;15.33;7.63;;;6.20;99.90;;;;;;5063548;28;20200;-61
2023/03/07 02:08:46;;;;;;;16.33;9.03;;;6.20;99.90;;;;;;5046815;28;20197;-61
2023/03/07 02:11:13;;;;;;;12.47;7.83;;;6.10;99.90;;;;;;5045219;28;20624;-61
2023/03/07 02:13:38;;;;;;;19.60;9.37;;;6.10;99.90;;;;;;5034299;28;20183;-63
2023/03/07 02:16:06;;;;;;;14.90;8.00;;;6.10;99.90;;;;;;5055995;28;20647;-61
2023/03/07 02:18:37;;;;;;;20.63;8.47;;;6.10;99.90;;;;;;5047649;28;20284;-61
2023/03/07 02:21:14;;;;;;;15.80;8.23;;;6.20;99.90;;;;;;5055458;28;20217;-61
2023/03/07 02:23:55;;;;;;;13.03;8.90;;;6.10;99.90;;;;;;5049962;28;20185;-61
2023/03/07 02:26:30;;;;;;;13.63;8.73;;;6.10;99.90;;;;;;5065664;28;20671;-61
2023/03/07 02:28:56;;;;;;;15.50;9.47;;;6.10;99.90;;;;;;5050086;28;20557;-61
2023/03/07 02:31:22;;;;;;;14.67;7.63;;;6.10;99.90;;;;;;5058573;28;20235;-62
2023/03/07 02:33:48;;;;;;;13.87;7.73;;;6.20;99.90;;;;;;5051201;28;20240;-61
2023/03/07 02:36:18;;;;;;;16.13;9.23;;;6.20;99.90;;;;;;5058818;28;20181;-61
2023/03/07 02:38:47;;;;;;;13.07;8.40;;;6.20;99.90;;;;;;5067099;28;20208;-61
2023/03/07 02:41:16;;;;;;;15.70;8.87;;;6.10;99.90;;;;;;5042872;28;20848;-61
2023/03/07 02:43:41;;;;;;;14.57;8.57;;;6.00;99.90;;;;;;5056632;28;20174;-61
2023/03/07 02:46:07;;;;;;;17.13;9.77;;;6.00;99.90;;;;;;5053017;28;20186;-61
2023/03/07 02:48:33;;;;;;;13.80;9.57;;;6.20;99.90;;;;;;5048409;28;20183;-61
2023/03/07 02:50:59;;;;;;;12.23;7.63;;;6.20;99.90;;;;;;5045002;28;20725;-61
2023/03/07 02:53:24;;;;;;;14.37;8.93;;;6.10;99.90;;;;;;5052449;28;20182;-61
2023/03/07 02:55:50;;;;;;;17.63;9.23;;;6.10;99.90;;;;;;5081977;28;20513;-63
2023/03/07 02:58:16;;;;;;;20.50;8.77;;;6.10;99.90;;;;;;5049522;28;20320;-61
2023/03/07 03:00:42;;;;;;;20.97;9.33;;;6.00;99.90;;;;;;5051964;28;20216;-61
2023/03/07 03:03:08;;;;;;;16.13;8.53;;;5.90;99.90;;;;;;5054402;28;20281;-61
2023/03/07 03:05:33;;;;;;;15.93;9.37;;;6.00;99.90;;;;;;5060154;28;20192;-61
2023/03/07 03:07:59;;;;;;;19.33;8.77;;;6.00;99.90;;;;;;5045559;28;20649;-61
2023/03/07 03:10:25;;;;;;;18.37;10.70;;;6.00;99.90;;;;;;5051659;28;20190;-61
2023/03/07 03:12:50;;;;;;;15.20;9.13;;;6.10;99.90;;;;;;5051188;28;20272;-63
2023/03/07 03:15:16;;;;;;;18.17;9.83;;;6.10;99.90;;;;;;5054480;28;20185;-64
2023/03/07 03:17:42;;;;;;;15.13;8.90;;;6.10;99.90;;;;;;5060266;28;20261;-62
2023/03/07 03:20:11;;;;;;;16.10;9.83;;;6.10;99.90;;;;;;5089190;28;20238;-61
2023/03/07 03:22:39;;;;;;;15.67;9.97;;;6.10;99.90;;;;;;5041037;28;20186;-61
2023/03/07 03:25:07;;;;;;;17.53;10.30;;;6.00;99.90;;;;;;5032354;28;20186;-61
2023/03/07 03:27:33;;;;;;;19.90;9.47;;;6.00;99.90;;;;;;5034285;28;20178;-62
2023/03/07 03:29:59;;;;;;;20.27;9.50;;;6.10;99.90;;;;;;5049054;28;20731;-61
2023/03/07 03:32:24;;;;;;;14.27;9.47;;;6.10;99.90;;;;;;5056669;28;20260;-61
2023/03/07 03:34:50;;;;;;;17.00;9.40;;;6.00;99.90;;;;;;5054533;28;20190;-61
2023/03/07 03:37:16;;;;;;;13.70;8.77;;;6.00;99.90;;;;;;5054405;28;20186;-62
2023/03/07 03:39:41;;;;;;;21.00;10.33;;;6.10;99.90;;;;;;5053913;28;20209;-61
2023/03/07 03:42:07;;;;;;;17.00;10.00;;;6.10;99.90;;;;;;5051315;28;20197;-61
2023/03/07 03:44:33;;;;;;;18.00;9.80;;;6.10;99.90;;;;;;5035766;28;20186;-61
2023/03/07 03:46:59;;;;;;;15.43;9.37;;;6.20;99.90;;;;;;5075421;28;20190;-61
2023/03/07 03:49:25;;;;;;;16.80;9.33;;;6.20;99.90;;;;;;5040668;28;20675;-61
2023/03/07 03:51:50;;;;;;;16.93;9.37;;;6.10;99.90;;;;;;5045186;28;20273;-61
2023/03/07 03:54:16;;;;;;;15.87;8.83;;;6.10;99.90;;;;;;5047601;28;20228;-62
2023/03/07 03:56:42;;;;;;;17.60;8.70;;;6.10;99.90;;;;;;5050938;28;20229;-61
2023/03/07 03:59:07;;;;;;;17.30;9.27;;;6.10;99.90;;;;;;5046638;28;20293;-61
2023/03/07 04:01:33;;;;;;;15.53;9.73;;;6.10;99.90;;;;;;5048101;28;20193;-62
2023/03/07 04:03:59;;;;;;;14.77;8.60;;;6.20;99.90;;;;;;5041640;28;20252;-61
2023/03/07 04:06:28;;;;;;;18.07;9.50;;;6.10;99.90;;;;;;5075203;28;20210;-61
2023/03/07 04:08:54;;;;;;;14.57;8.77;;;6.10;99.90;;;;;;5050076;28;20182;-61
2023/03/07 04:11:21;;;;;;;18.27;8.60;;;6.10;99.90;;;;;;5062571;28;20193;-62
2023/03/07 04:13:47;;;;;;;17.90;9.37;;;6.10;99.90;;;;;;5046036;28;20541;-61
2023/03/07 04:16:12;;;;;;;16.87;8.97;;;6.00;99.90;;;;;;5053929;28;20190;-61
2023/03/07 04:18:41;;;;;;;14.67;10.07;;;6.00;99.90;;;;;;5042206;28;20190;-62
2023/03/07 04:21:09;;;;;;;16.60;9.33;;;6.10;99.90;;;;;;5085080;28;20276;-62
2023/03/07 04:23:36;;;;;;;16.83;10.20;;;6.10;99.90;;;;;;5059005;28;20269;-62
2023/03/07 04:26:04;;;;;;;17.90;9.10;;;6.10;99.90;;;;;;5040667;28;20175;-62
2023/03/07 04:28:44;;;;;;;20.37;10.57;;;6.10;99.90;;;;;;5054470;28;20179;-61
2023/03/07 04:31:19;;;;;;;23.67;10.33;;;6.20;99.90;;;;;;5035716;28;20179;-61
2023/03/07 04:33:46;;;;;;;17.33;10.07;;;6.20;99.90;;;;;;5035827;28;20584;-61
2023/03/07 04:36:12;;;;;;;14.50;8.00;;;6.10;99.90;;;;;;5042208;28;20174;-61
2023/03/07 04:38:39;;;;;;;16.67;8.77;;;5.90;99.90;;;;;;5042705;28;20273;-61
2023/03/07 04:41:11;;;;;;;18.63;9.53;;;5.90;99.90;;;;;;5036784;28;20269;-61
2023/03/07 04:43:37;;;;;;;21.10;9.90;;;6.00;99.90;;;;;;5047122;28;20774;-61
2023/03/07 04:46:03;;;;;;;17.23;8.87;;;6.00;99.90;;;;;;5053021;28;20257;-61
2023/03/07 04:48:28;;;;;;;14.10;8.40;;;6.00;99.90;;;;;;5039377;28;20201;-61
2023/03/07 04:50:54;;;;;;;14.13;8.53;;;5.90;99.90;;;;;;5035349;28;20247;-61
2023/03/07 04:53:20;;;;;;;15.47;9.67;;;5.90;99.90;;;;;;5045843;28;20197;-61
2023/03/07 04:55:46;;;;;;;13.00;8.93;;;6.00;99.90;;;;;;5039270;28;20178;-59
2023/03/07 04:58:12;;;;;;;19.23;9.00;;;5.90;99.90;;;;;;5046071;28;20276;-59
2023/03/07 05:00:45;;;;;;;18.70;10.53;;;5.70;99.90;;;;;;5041545;28;20213;-59
2023/03/07 05:03:12;;;;;;;19.53;10.37;;;5.70;99.90;;;;;;5036248;28;20210;-61
2023/03/07 05:05:38;;;;;;;15.93;9.07;;;5.70;99.90;;;;;;5027857;28;20542;-60
2023/03/07 05:08:05;;;;;;;16.97;9.57;;;5.80;99.90;;;;;;5034967;28;20202;-60
2023/03/07 05:10:32;;;;;;;13.67;9.20;;;5.80;99.90;;;;;;5034287;28;20201;-59
2023/03/07 05:12:57;;;;;;;20.50;9.37;;;5.90;99.90;;;;;;5035198;28;20187;-60
2023/03/07 05:15:24;;;;;;;18.47;9.50;;;5.80;99.90;;;;;;5037374;28;20236;-61
2023/03/07 05:17:50;;;;;;;18.07;9.20;;;5.80;99.90;;;;;;5049256;28;20259;-60
2023/03/07 05:20:16;;;;;;;15.87;9.70;;;5.90;99.90;;;;;;5054670;28;20688;-60
2023/03/07 05:22:42;;;;;;;16.50;9.70;;;6.00;99.90;;;;;;5052212;28;20240;-60
2023/03/07 05:25:07;;;;;;;19.07;10.10;;;6.00;99.90;;;;;;5048655;28;20183;-63
2023/03/07 05:27:33;;;;;;;16.93;9.87;;;6.00;99.90;;;;;;5058178;28;20178;-60
2023/03/07 05:29:59;;;;;;;14.77;8.73;;;6.10;99.90;;;;;;5055684;28;20593;-60
2023/03/07 05:32:25;;;;;;;17.20;9.90;;;5.80;99.90;;;;;;5052472;28;20602;-64
2023/03/07 05:34:51;;;;;;;22.23;10.57;;;5.70;99.90;;;;;;5058431;28;20205;-59
2023/03/07 05:37:17;;;;;;;14.00;8.40;;;5.70;99.90;;;;;;5040155;28;20641;-60
2023/03/07 05:39:42;;;;;;;19.60;9.87;;;5.70;99.90;;;;;;5034607;28;20210;-60
2023/03/07 05:42:08;;;;;;;15.27;8.17;;;5.70;99.90;;;;;;5041663;28;20206;-60
2023/03/07 05:44:34;;;;;;;16.97;9.33;;;5.60;99.90;;;;;;5049160;28;20197;-60
2023/03/07 05:46:59;;;;;;;10.83;8.07;;;5.70;99.90;;;;;;5043872;28;20660;-59
2023/03/07 05:49:25;;;;;;;22.47;10.10;;;5.70;99.90;;;;;;5048568;28;20213;-60
2023/03/07 05:51:51;;;;;;;18.27;10.13;;;5.70;99.90;;;;;;5048528;28;20666;-60
2023/03/07 05:54:16;;;;;;;14.97;8.50;;;5.70;99.90;;;;;;5032900;28;20194;-59
2023/03/07 05:56:42;;;;;;;18.03;10.03;;;5.80;99.90;;;;;;5057453;28;20703;-60
2023/03/07 05:59:11;;;;;;;15.50;9.27;;;5.70;99.90;;;;;;5054736;28;20229;-60
2023/03/07 06:01:37;;;;;;;16.40;9.33;;;5.80;99.90;;;;;;5055098;28;20185;-60
2023/03/07 06:04:03;;;;;;;15.53;10.33;;;5.80;99.90;;;;;;5058510;28;20595;-60
2023/03/07 06:06:29;;;;;;;17.27;10.07;;;5.90;99.90;;;;;;5041458;28;20210;-61
2023/03/07 06:08:54;;;;;;;21.03;9.20;;;6.00;99.90;;;;;;5039533;28;20240;-60
2023/03/07 06:11:20;;;;;;;16.93;10.23;;;5.90;99.90;;;;;;5044788;28;20189;-60
2023/03/07 06:13:45;;;;;;;15.90;10.20;;;5.80;99.90;;;;;;5046569;28;20198;-60
2023/03/07 06:16:11;;;;;;;19.20;10.67;;;5.80;99.90;;;;;;5034271;28;20273;-61
2023/03/07 06:18:37;;;;;;;19.37;11.97;;;5.90;99.90;;;;;;5034417;28;20195;-61
2023/03/07 06:21:05;;;;;;;16.20;10.00;;;6.00;99.90;;;;;;5059470;28;20597;-61
2023/03/07 06:23:33;;;;;;;20.53;9.60;;;6.10;99.90;;;;;;5044390;28;20206;-62
2023/03/07 06:25:58;;;;;;;18.60;9.53;;;6.00;99.90;;;;;;5032664;28;20187;-62
2023/03/07 06:28:25;;;;;;;16.60;9.83;;;5.90;99.90;;;;;;5041331;28;20539;-62
2023/03/07 06:30:50;;;;;;;15.27;9.20;;;5.90;99.90;;;;;;5046131;28;20671;-61
2023/03/07 06:33:16;;;;;;;12.40;9.23;;;5.80;99.90;;;;;;5032917;28;20186;-61
2023/03/07 06:35:42;;;;;;;19.57;11.50;;;5.90;99.90;;;;;;5036870;28;20186;-62
2023/03/07 06:38:09;;;;;;;18.77;10.63;;;6.00;99.90;;;;;;5043145;28;20183;-63
2023/03/07 06:40:35;;;;;;;15.93;9.17;;;6.00;99.90;;;;;;5033962;28;20230;-61
2023/03/07 06:43:01;;;;;;;16.63;10.00;;;5.90;99.90;;;;;;5033578;28;20642;-62
2023/03/07 06:45:27;;;;;;;15.70;9.97;;;5.90;99.90;;;;;;5053286;28;20193;-60
2023/03/07 06:47:53;;;;;;;14.23;9.47;;;5.90;99.90;;;;;;5061915;28;20522;-61
2023/03/07 06:50:19;;;;;;;20.33;9.83;;;5.90;99.90;;;;;;5051039;28;20721;-63
2023/03/07 06:52:44;;;;;;;13.97;9.57;;;6.00;99.90;;;;;;5066060;28;20262;-61
2023/03/07 06:55:10;;;;;;;19.00;10.50;;;6.00;99.90;;;;;;5048688;28;20583;-61
2023/03/07 06:57:36;;;;;;;17.57;9.90;;;6.00;99.90;;;;;;5034698;28;20249;-60
2023/03/07 07:00:04;;;;;;;21.60;10.50;;;5.90;99.90;;;;;;5042031;28;20247;-61
2023/03/07 07:02:30;;;;;;;16.87;10.23;;;6.00;99.90;;;;;;5041321;28;20655;-61
2023/03/07 07:04:57;;;;;;;21.13;9.67;;;6.20;99.90;;;;;;5036998;28;20213;-62
2023/03/07 07:07:23;;;;;;;17.83;8.97;;;6.20;99.90;;;;;;5039069;28;20178;-63
2023/03/07 07:09:50;;;;;;;15.63;9.10;;;6.20;99.90;;;;;;5039766;28;20221;-60
2023/03/07 07:12:15;;;;;;;19.03;11.13;;;6.20;99.90;;;;;;5042558;28;20189;-62
2023/03/07 07:14:41;;;;;;;19.80;10.83;;;6.20;99.90;;;;;;5042987;28;20189;-62
2023/03/07 07:17:07;;;;;;;20.73;8.97;;;6.30;99.90;;;;;;5042163;28;20261;-61
2023/03/07 07:19:33;;;;;;;15.37;9.20;;;6.20;99.90;;;;;;5043897;28;20207;-62
2023/03/07 07:21:59;;;;;;;14.97;9.07;;;6.20;99.90;;;;;;5061562;28;20194;-66
2023/03/07 07:24:25;;;;;;;22.83;10.00;;;6.20;99.90;;;;;;5037166;28;20189;-62
2023/03/07 07:26:50;;;;;;;17.07;8.67;;;6.20;99.90;;;;;;5040068;28;20272;-61
2023/03/07 07:29:16;;;;;;;26.67;11.23;;;6.10;99.90;;;;;;5047062;28;20190;-61
2023/03/07 07:31:42;;;;;;;13.10;9.33;;;6.10;99.90;;;;;;5042679;28;20242;-61
2023/03/07 07:34:07;;;;;;;15.67;9.30;;;6.00;99.90;;;;;;5049448;28;20190;-62
2023/03/07 07:36:33;;;;;;;19.97;11.57;;;6.10;99.90;;;;;;5050038;28;20186;-62
2023/03/07 07:39:09;;;;;;;17.70;10.33;;;6.10;99.90;;;;;;5042161;28;20210;-61
2023/03/07 07:41:35;;;;;;;16.17;8.40;;;6.30;99.90;;;;;;5052046;28;20186;-62
2023/03/07 07:44:01;;;;;;;15.67;9.80;;;6.30;99.90;;;;;;5048498;28;20181;-61
2023/03/07 07:46:27;;;;;;;16.87;8.73;;;6.30;99.90;;;;;;5043180;28;20536;-66
2023/03/07 07:48:54;;;;;;;19.23;9.37;;;6.40;99.90;;;;;;5038575;28;20194;-61
2023/03/07 07:51:20;;;;;;;17.70;10.03;;;6.30;99.90;;;;;;5048774;28;20648;-63
2023/03/07 07:53:46;;;;;;;24.07;9.17;;;6.30;99.90;;;;;;5024579;28;20201;-62
2023/03/07 07:56:11;;;;;;;16.07;9.67;;;6.30;99.90;;;;;;5049057;28;20283;-63
2023/03/07 07:58:37;;;;;;;20.27;10.47;;;6.30;99.90;;;;;;5031823;28;20609;-64
2023/03/07 08:01:21;;;;;;;15.10;10.20;;;6.40;99.90;;;;;;5050747;28;20247;-62
2023/03/07 08:03:47;;;;;;;15.40;9.73;;;6.40;99.90;;;;;;5047643;28;20242;-63
2023/03/07 08:06:17;;;;;;;16.67;9.97;;;6.50;99.90;;;;;;5051796;28;20220;-65
2023/03/07 08:08:42;;;;;;;13.70;9.07;;;6.60;99.90;;;;;;5048717;28;20185;-63
2023/03/07 08:11:08;;;;;;;15.50;9.03;;;6.40;99.90;;;;;;5072874;28;20721;-63
2023/03/07 08:13:34;;;;;;;11.80;8.30;;;6.30;99.90;;;;;;5062065;28;20173;-65
2023/03/07 08:15:59;;;;;;;15.80;8.90;;;6.40;99.90;;;;;;5036894;28;20247;-63
2023/03/07 08:18:25;;;;;;;13.00;8.40;;;6.40;99.90;;;;;;5046052;28;20678;-63
2023/03/07 08:20:51;;;;;;;18.60;8.43;;;6.50;99.90;;;;;;5047226;28;20215;-63
2023/03/07 08:23:16;;;;;;;15.87;8.00;;;6.30;99.90;;;;;;5046287;28;20194;-63
2023/03/07 08:25:43;;;;;;;13.30;8.33;;;6.30;99.90;;;;;;5039409;28;20297;-63
2023/03/07 08:28:08;;;;;;;14.60;8.60;;;6.40;99.90;;;;;;5041268;28;20192;-62
2023/03/07 08:30:35;;;;;;;12.93;7.50;;;6.40;99.90;;;;;;5040056;28;20661;-61
2023/03/07 08:33:02;;;;;;;13.70;8.40;;;6.40;99.90;;;;;;5054045;28;20194;-62
2023/03/07 08:35:29;;;;;;;13.33;8.10;;;6.50;99.90;;;;;;5049148;28;20282;-61
2023/03/07 08:37:59;;;;;;;11.20;7.27;;;6.40;99.90;;;;;;5050306;28;20181;-62
2023/03/07 08:40:27;;;;;;;11.33;7.00;;;6.40;99.90;;;;;;5047830;28;20299;-63
2023/03/07 08:42:54;;;;;;;9.37;7.30;;;6.40;99.90;;;;;;5054523;28;20683;-62
2023/03/07 08:45:21;;;;;;;13.60;8.10;;;6.40;99.90;;;;;;5042492;28;20238;-62
2023/03/07 08:47:47;;;;;;;11.63;7.90;;;6.50;99.90;;;;;;5038400;28;20676;-62
2023/03/07 08:50:12;;;;;;;12.37;7.63;;;6.60;99.90;;;;;;5044193;28;20782;-64
2023/03/07 08:52:38;;;;;;;11.83;6.80;;;6.80;99.90;;;;;;5069215;28;20212;-62
2023/03/07 08:55:04;;;;;;;11.03;7.47;;;6.70;99.90;;;;;;5038920;28;20221;-63
2023/03/07 08:57:30;;;;;;;9.97;6.40;;;6.80;99.90;;;;;;5059681;28;20279;-63
2023/03/07 08:59:56;;;;;;;12.70;7.43;;;6.90;99.90;;;;;;5080120;28;20241;-62
2023/03/07 09:02:21;;;;;;;10.37;7.63;;;6.90;99.90;;;;;;5046323;28;20193;-65
2023/03/07 09:04:47;;;;;;;14.27;8.77;;;7.00;99.90;;;;;;5056672;28;20202;-63
2023/03/07 09:07:12;;;;;;;14.73;7.53;;;7.00;99.90;;;;;;5049900;28;20549;-62
2023/03/07 09:09:38;;;;;;;13.70;7.47;;;7.00;99.90;;;;;;5066957;28;20587;-62
2023/03/07 09:12:04;;;;;;;12.53;7.97;;;6.80;99.90;;;;;;5033325;28;20187;-62
2023/03/07 09:14:30;;;;;;;13.13;7.37;;;6.90;99.90;;;;;;5059186;28;20229;-62
2023/03/07 09:16:55;;;;;;;13.50;8.27;;;6.80;99.90;;;;;;5047780;28;20182;-62
2023/03/07 09:19:22;;;;;;;11.80;7.43;;;6.80;99.90;;;;;;5020620;28;20297;-62
2023/03/07 09:21:48;;;;;;;13.67;8.27;;;6.90;99.90;;;;;;5034099;28;20210;-62
2023/03/07 09:24:14;;;;;;;13.63;8.03;;;6.90;99.90;;;;;;5042529;28;20179;-62
2023/03/07 09:26:40;;;;;;;17.10;7.50;;;6.90;99.90;;;;;;5046306;28;20672;-62
2023/03/07 09:29:05;;;;;;;16.23;6.70;;;6.90;99.90;;;;;;5066181;28;20546;-62
2023/03/07 09:31:32;;;;;;;8.20;5.83;;;6.90;99.90;;;;;;5042582;28;20193;-62
2023/03/07 09:33:57;;;;;;;12.30;6.57;;;6.80;99.90;;;;;;5072330;28;20667;-61
2023/03/07 09:36:23;;;;;;;8.07;5.27;;;6.70;99.90;;;;;;5052667;28;20193;-62
2023/03/07 09:38:49;;;;;;;10.43;5.87;;;6.50;99.90;;;;;;5052305;28;20657;-62
2023/03/07 09:41:32;;;;;;;12.17;6.00;;;6.40;99.90;;;;;;5043132;28;20202;-62
2023/03/07 09:44:25;;;;;;;7.70;5.63;;;6.40;99.90;;;;;;5053882;28;20178;-62
2023/03/07 09:47:26;;;;;;;7.23;5.13;;;6.50;99.90;;;;;;5039229;28;20536;-62
2023/03/07 09:49:53;;;;;;;8.00;5.20;;;6.50;99.90;;;;;;5012462;28;20225;-61
2023/03/07 09:52:29;;;;;;;9.20;5.23;;;6.60;99.90;;;;;;5050243;28;20607;-63
2023/03/07 09:55:10;;;;;;;6.37;4.37;;;6.60;99.90;;;;;;5042294;28;20236;-61
2023/03/07 09:57:57;;;;;;;11.27;4.80;;;6.70;99.90;;;;;;5039158;28;20225;-63
2023/03/07 10:00:29;;;;;;;5.63;3.93;;;6.60;99.90;;;;;;5050996;28;20248;-62
2023/03/07 10:03:15;;;;;;;4.17;3.60;;;6.50;99.90;;;;;;5058271;28;20216;-62
2023/03/07 10:05:46;;;;;;;6.40;4.27;;;6.50;99.90;;;;;;5033346;28;20661;-62
2023/03/07 10:08:36;;;;;;;3.80;3.40;;;6.80;99.90;;;;;;5053917;28;20186;-62
2023/03/07 10:11:23;;;;;;;4.40;3.43;;;6.80;99.90;;;;;;5035297;28;20695;-61
2023/03/07 10:14:10;;;;;;;5.37;3.33;;;6.70;99.90;;;;;;5072132;28;20542;-62
2023/03/07 10:16:55;;;;;;;4.30;3.67;;;6.50;99.90;;;;;;5032416;28;20193;-62
2023/03/07 10:19:35;;;;;;;4.27;3.63;;;6.50;99.90;;;;;;5048262;28;20211;-62
2023/03/07 10:22:04;;;;;;;3.00;2.70;;;6.70;99.90;;;;;;5034949;28;20198;-63
2023/03/07 10:25:07;;;;;;;6.43;2.53;;;6.60;99.90;;;;;;5049901;28;20190;-61
2023/03/07 10:27:33;;;;;;;2.50;2.20;;;6.60;99.90;;;;;;5051116;28;20643;-63
2023/03/07 10:30:00;;;;;;;2.67;2.40;;;6.80;99.90;;;;;;5051273;28;20194;-62
2023/03/07 10:32:40;;;;;;;2.57;1.97;;;6.90;99.90;;;;;;5044655;28;20195;-62
2023/03/07 10:35:14;;;;;;;2.80;2.07;;;7.00;99.90;;;;;;5033949;28;20189;-62
2023/03/07 10:37:49;;;;;;;5.13;2.37;;;7.00;99.90;;;;;;5033003;28;20182;-64
2023/03/07 10:40:27;;;;;;;2.37;2.27;;;6.90;99.90;;;;;;5035108;28;20656;-62
2023/03/07 10:42:54;;;;;;;2.80;2.57;;;7.00;99.90;;;;;;5033275;28;20193;-62
2023/03/07 10:45:20;;;;;;;3.27;2.30;;;7.00;99.90;;;;;;5049243;28;20205;-61
2023/03/07 10:47:46;;;;;;;3.40;2.43;;;7.20;99.90;;;;;;5053787;28;20182;-61
2023/03/07 10:50:49;;;;;;;2.07;1.93;;;7.20;99.90;;;;;;5052588;28;20214;-61
2023/03/07 10:53:36;;;;;;;2.30;2.20;;;7.30;99.90;;;;;;5052963;28;20186;-62
2023/03/07 10:56:14;;;;;;;2.10;2.00;;;7.20;99.90;;;;;;5055263;28;20268;-62
2023/03/07 10:59:02;;;;;;;5.60;2.90;;;7.00;99.90;;;;;;5065227;28;20189;-63
2023/03/07 11:01:30;;;;;;;2.20;1.93;;;7.10;99.90;;;;;;5050568;28;20289;-62
2023/03/07 11:04:00;;;;;;;2.47;2.23;;;7.00;99.90;;;;;;5063529;28;20209;-62
2023/03/07 11:06:31;;;;;;;3.03;2.70;;;7.00;99.90;;;;;;5037848;28;20542;-62
2023/03/07 11:09:06;;;;;;;3.20;2.87;;;6.80;99.90;;;;;;5032724;28;20206;-63
2023/03/07 11:11:32;;;;;;;3.23;2.93;;;6.80;99.90;;;;;;5046500;28;20178;-62
2023/03/07 11:14:12;;;;;;;2.67;2.43;;;6.80;99.90;;;;;;5038855;28;20559;-61
2023/03/07 11:16:58;;;;;;;3.23;2.93;;;6.90;99.90;;;;;;5048618;28;20185;-62
2023/03/07 11:19:44;;;;;;;3.60;3.10;;;6.90;99.90;;;;;;5038312;28;20702;-62
2023/03/07 11:22:26;;;;;;;3.90;3.17;;;7.00;99.90;;;;;;5032359;28;20221;-63
2023/03/07 11:25:05;;;;;;;2.73;2.40;;;7.00;99.90;;;;;;5032708;28;20190;-62
2023/03/07 11:27:49;;;;;;;4.13;3.40;;;7.20;99.90;;;;;;5032303;28;20185;-61
2023/03/07 11:30:39;;;;;;;5.30;2.80;;;6.90;99.90;;;;;;5032282;28;20197;-62
2023/03/07 11:33:27;;;;;;;2.87;2.63;;;6.80;99.90;;;;;;5032231;28;20261;-61
2023/03/07 11:36:16;;;;;;;3.70;3.40;;;6.70;99.90;;;;;;5032152;28;20198;-62
2023/03/07 11:39:03;;;;;;;5.60;3.47;;;6.80;99.90;;;;;;5038542;28;20536;-62
2023/03/07 11:41:32;;;;;;;4.77;3.50;;;6.80;99.90;;;;;;5041286;28;20190;-61
2023/03/07 11:44:01;;;;;;;3.73;3.27;;;6.70;99.90;;;;;;5038593;28;20199;-61
2023/03/07 11:46:55;;;;;;;3.80;3.40;;;6.70;99.90;;;;;;5045774;28;20187;-62
2023/03/07 11:49:53;;;;;;;4.33;3.53;;;6.60;99.90;;;;;;5034159;28;21469;-61
2023/03/07 11:52:37;;;;;;;3.53;3.20;;;6.50;99.90;;;;;;5043003;28;20182;-61
2023/03/07 11:55:11;;;;;;;3.60;2.70;;;6.50;99.90;;;;;;5040393;28;20648;-62
2023/03/07 11:57:52;;;;;;;6.03;2.67;;;6.50;99.90;;;;;;5050383;28;20275;-61
2023/03/07 12:00:29;;;;;;;3.63;2.77;;;6.50;99.90;;;;;;5040394;28;20281;-61
2023/03/07 12:03:23;;;;;;;2.80;2.50;;;6.50;99.90;;;;;;5040683;28;20183;-61
2023/03/07 12:06:10;;;;;;;3.67;3.37;;;6.30;99.90;;;;;;5057391;28;20187;-61
2023/03/07 12:08:51;;;;;;;3.27;2.50;;;6.50;99.90;;;;;;5048660;28;20178;-62
2023/03/07 12:11:23;;;;;;;3.80;3.23;;;6.70;99.90;;;;;;5045228;28;20186;-61
2023/03/07 12:14:03;;;;;;;2.60;2.40;;;6.70;99.90;;;;;;5040776;28;20187;-61
2023/03/07 12:17:11;;;;;;;4.60;2.97;;;6.70;99.90;;;;;;5038200;28;20178;-61
2023/03/07 12:20:02;;;;;;;2.83;2.63;;;6.70;99.90;;;;;;5034695;28;20681;-62
2023/03/07 12:22:56;;;;;;;2.97;2.67;;;6.70;99.90;;;;;;5039013;28;20183;-62
2023/03/07 12:25:29;;;;;;;2.60;2.23;;;6.80;99.90;;;;;;5042709;28;20205;-63
2023/03/07 12:28:11;;;;;;;2.87;2.67;;;6.90;99.90;;;;;;5042236;28;20634;-62
2023/03/07 12:30:58;;;;;;;3.30;2.87;;;7.00;99.90;;;;;;5041329;28;20177;-61
2023/03/07 12:33:42;;;;;;;6.30;3.30;;;7.10;99.90;;;;;;5042861;28;20206;-62
2023/03/07 12:36:23;;;;;;;3.27;2.77;;;7.20;99.90;;;;;;5037974;28;20174;-62
2023/03/07 12:39:16;;;;;;;3.30;2.97;;;7.10;99.90;;;;;;5040224;28;20182;-62
2023/03/07 12:41:58;;;;;;;3.80;2.63;;;7.00;99.90;;;;;;5049844;28;20209;-62
2023/03/07 12:44:52;;;;;;;6.40;2.83;;;6.80;99.90;;;;;;5038126;28;20244;-62
2023/03/07 12:47:36;;;;;;;7.10;3.00;;;6.70;99.90;;;;;;5037010;28;20183;-62
2023/03/07 12:50:05;;;;;;;12.70;7.37;;;6.70;99.90;;;;;;5048857;28;20204;-62
2023/03/07 12:52:59;;;;;;;14.30;8.73;;;6.70;99.90;;;;;;5049935;28;20190;-62
2023/03/07 12:55:55;;;;;;;22.47;10.43;;;6.80;99.90;;;;;;5045949;28;20637;-61
2023/03/07 12:58:39;;;;;;;14.93;9.07;;;6.80;99.90;;;;;;5044610;28;20566;-61
2023/03/07 13:01:33;;;;;;;17.07;10.67;;;6.80;99.90;;;;;;5041519;28;20226;-61
2023/03/07 13:04:14;;;;;;;18.93;9.97;;;6.90;99.90;;;;;;5050101;28;20289;-61